createdAt,value
2022-08-07T00:02:37.155Z,45.40
2022-08-07T00:04:09.350Z,45.90
2022-08-07T00:06:51.109Z,45.30
2022-08-07T00:09:22.620Z,45.40
2022-08-07T00:11:55.660Z,45.30
2022-08-07T00:14:31.336Z,45.30
2022-08-07T00:17:01.909Z,45.30
2022-08-07T00:19:59.701Z,45.30
2022-08-07T00:22:24.705Z,45.30
2022-08-07T00:25:07.085Z,45.40
2022-08-07T00:27:52.306Z,45.20
2022-08-07T00:30:28.118Z,45.40
2022-08-07T00:32:58.335Z,45.40
2022-08-07T00:35:30.536Z,45.30
2022-08-07T00:37:59.721Z,45.40
2022-08-07T00:40:39.358Z,45.10
2022-08-07T00:43:10.755Z,45.70
2022-08-07T00:45:59.578Z,46.00
2022-08-07T00:48:32.218Z,46.30
2022-08-07T00:51:03.038Z,46.20
2022-08-07T00:53:39.059Z,46.40
2022-08-07T00:56:19.352Z,46.60
2022-08-07T00:58:49.720Z,46.60
2022-08-07T01:01:20.551Z,46.50
2022-08-07T01:03:57.061Z,46.40
2022-08-07T01:06:31.729Z,46.30
2022-08-07T01:09:01.570Z,46.60
2022-08-07T01:12:10.139Z,46.60
2022-08-07T01:14:28.864Z,46.50
2022-08-07T01:17:00.223Z,46.50
2022-08-07T01:19:33.381Z,46.70
2022-08-07T01:22:08.710Z,48.60
2022-08-07T01:24:42.851Z,48.20
2022-08-07T01:27:19.418Z,48.30
2022-08-07T01:29:50.763Z,48.40
2022-08-07T01:32:22.282Z,48.20
2022-08-07T01:34:52.902Z,48.20
2022-08-07T01:37:22.933Z,48.10
2022-08-07T01:39:54.448Z,48.00
2022-08-07T01:42:38.748Z,47.80
2022-08-07T01:45:18.266Z,47.80
2022-08-07T01:48:19.666Z,47.70
2022-08-07T01:50:50.315Z,47.80
2022-08-07T01:53:35.135Z,47.70
2022-08-07T01:56:23.625Z,47.70
2022-08-07T01:59:06.243Z,47.50
2022-08-07T02:02:01.671Z,47.60
2022-08-07T02:04:55.670Z,47.50
2022-08-07T02:07:36.184Z,47.50
2022-08-07T02:10:25.076Z,47.40
2022-08-07T02:12:55.799Z,47.40
2022-08-07T02:15:35.031Z,47.40
2022-08-07T02:18:05.390Z,47.40
2022-08-07T02:20:35.452Z,47.50
2022-08-07T02:23:07.671Z,47.50
2022-08-07T02:26:31.176Z,47.40
2022-08-07T02:28:32.070Z,47.40
2022-08-07T02:31:10.126Z,47.30
2022-08-07T02:34:03.002Z,47.30
2022-08-07T02:36:36.097Z,47.40
2022-08-07T02:39:16.937Z,47.40
2022-08-07T02:42:10.218Z,47.40
2022-08-07T02:44:51.895Z,47.80
2022-08-07T02:47:25.493Z,47.30
2022-08-07T02:50:03.992Z,47.10
2022-08-07T02:52:44.238Z,46.80
2022-08-07T02:55:27.905Z,47.00
2022-08-07T02:58:15.609Z,46.90
2022-08-07T03:00:47.405Z,47.00
2022-08-07T03:03:22.563Z,46.80
2022-08-07T03:05:54.428Z,46.80
2022-08-07T03:08:29.369Z,46.80
2022-08-07T03:11:02.365Z,46.80
2022-08-07T03:13:49.716Z,46.70
2022-08-07T03:16:22.877Z,46.60
2022-08-07T03:18:53.069Z,46.80
2022-08-07T03:21:24.466Z,46.70
2022-08-07T03:24:20.897Z,46.80
2022-08-07T03:26:58.534Z,46.60
2022-08-07T03:29:36.802Z,46.40
2022-08-07T03:32:13.040Z,46.50
2022-08-07T03:34:47.387Z,46.30
2022-08-07T03:37:37.374Z,46.40
2022-08-07T03:40:16.866Z,46.40
2022-08-07T03:42:49.313Z,46.50
2022-08-07T03:45:30.032Z,46.30
2022-08-07T03:48:04.626Z,46.50
2022-08-07T03:50:39.150Z,46.40
2022-08-07T03:53:14.020Z,46.50
2022-08-07T03:55:53.034Z,46.30
2022-08-07T03:59:07.889Z,46.30
2022-08-07T04:01:29.686Z,44.60
2022-08-07T04:04:04.840Z,44.70
2022-08-07T04:06:38.715Z,44.70
2022-08-07T04:09:17.064Z,44.60
2022-08-07T04:12:26.383Z,44.60
2022-08-07T04:14:46.249Z,44.60
2022-08-07T04:17:21.973Z,44.60
2022-08-07T04:19:57.380Z,44.70
2022-08-07T04:22:30.144Z,44.80
2022-08-07T04:25:08.665Z,44.80
2022-08-07T04:27:44.183Z,44.80
2022-08-07T04:30:36.000Z,44.70
2022-08-07T04:33:20.745Z,44.80
2022-08-07T04:35:54.122Z,44.80
2022-08-07T04:38:27.328Z,44.80
2022-08-07T04:40:56.479Z,44.80
2022-08-07T04:44:12.607Z,44.80
2022-08-07T04:46:40.001Z,44.90
2022-08-07T04:49:40.655Z,44.90
2022-08-07T04:52:25.114Z,44.90
2022-08-07T04:55:15.564Z,45.00
2022-08-07T04:58:10.524Z,45.00
2022-08-07T05:00:57.964Z,45.00
2022-08-07T05:04:07.435Z,45.10
2022-08-07T05:06:43.748Z,45.10
2022-08-07T05:09:45.998Z,45.20
2022-08-07T05:12:27.158Z,45.30
2022-08-07T05:15:23.223Z,45.30
2022-08-07T05:18:01.441Z,45.20
2022-08-07T05:20:43.068Z,45.30
2022-08-07T05:23:20.494Z,45.30
2022-08-07T05:26:12.872Z,45.30
2022-08-07T05:28:50.197Z,45.40
2022-08-07T05:31:24.326Z,45.50
2022-08-07T05:34:05.684Z,45.50
2022-08-07T05:36:41.528Z,46.20
2022-08-07T05:40:13.674Z,45.70
2022-08-07T05:42:12.547Z,45.70
2022-08-07T05:44:53.028Z,45.70
2022-08-07T05:47:38.178Z,45.80
2022-08-07T05:50:23.454Z,45.80
2022-08-07T05:52:51.910Z,45.90
2022-08-07T05:55:21.807Z,45.90
2022-08-07T05:57:53.642Z,45.90
2022-08-07T06:00:24.385Z,45.90
2022-08-07T06:03:04.242Z,45.80
2022-08-07T06:05:35.452Z,45.70
2022-08-07T06:08:29.564Z,45.70
2022-08-07T06:10:59.394Z,45.60
2022-08-07T06:14:11.952Z,45.10
2022-08-07T06:16:29.305Z,45.00
2022-08-07T06:19:00.571Z,45.90
2022-08-07T06:22:14.427Z,47.10
2022-08-07T06:24:38.313Z,45.50
2022-08-07T06:27:09.136Z,45.30
2022-08-07T06:29:39.124Z,44.80
2022-08-07T06:32:09.279Z,44.80
2022-08-07T06:34:45.280Z,44.70
2022-08-07T06:37:26.494Z,44.70
2022-08-07T06:40:16.344Z,44.00
2022-08-07T06:42:53.881Z,43.80
2022-08-07T06:45:41.080Z,43.70
2022-08-07T06:48:13.601Z,43.40
2022-08-07T06:50:48.457Z,43.90
2022-08-07T06:55:27.407Z,43.80
2022-08-07T06:56:16.007Z,43.80
2022-08-07T07:00:14.546Z,43.70
2022-08-07T07:01:50.990Z,43.20
2022-08-07T07:04:32.057Z,43.00
2022-08-07T07:07:18.789Z,43.20
2022-08-07T07:09:48.666Z,43.10
2022-08-07T07:12:33.560Z,43.30
2022-08-07T07:15:16.224Z,43.50
2022-08-07T07:18:46.838Z,43.50
2022-08-07T07:21:19.709Z,43.40
2022-08-07T07:24:06.410Z,43.40
2022-08-07T07:26:40.586Z,43.20
2022-08-07T07:29:28.557Z,42.80
2022-08-07T07:32:09.193Z,42.70
2022-08-07T07:34:45.839Z,43.10
2022-08-07T07:37:22.073Z,43.10
2022-08-07T07:40:15.239Z,42.90
2022-08-07T07:42:47.213Z,43.00
2022-08-07T07:46:53.809Z,42.90
2022-08-07T07:48:34.999Z,42.70
2022-08-07T07:51:08.039Z,42.60
2022-08-07T07:53:51.745Z,43.10
2022-08-07T07:56:30.679Z,43.20
2022-08-07T07:59:01.896Z,43.60
2022-08-07T08:02:03.893Z,43.50
2022-08-07T08:04:25.851Z,43.50
2022-08-07T08:06:55.630Z,43.60
2022-08-07T08:09:29.678Z,43.60
2022-08-07T08:12:03.812Z,43.60
2022-08-07T08:14:36.034Z,43.70
2022-08-07T08:17:56.118Z,43.80
2022-08-07T08:20:17.329Z,43.70
2022-08-07T08:23:09.898Z,44.20
2022-08-07T08:26:04.583Z,44.50
2022-08-07T08:28:44.826Z,44.10
2022-08-07T08:31:29.926Z,44.10
2022-08-07T08:34:12.474Z,44.10
2022-08-07T08:36:58.649Z,44.20
2022-08-07T08:39:39.425Z,44.10
2022-08-07T08:42:27.163Z,44.20
2022-08-07T08:45:06.536Z,44.20
2022-08-07T08:47:52.662Z,44.30
2022-08-07T08:50:38.845Z,44.30
2022-08-07T08:53:19.263Z,44.30
2022-08-07T08:55:55.143Z,44.40
2022-08-07T08:58:37.632Z,44.50
2022-08-07T09:01:19.289Z,44.50
2022-08-07T09:03:59.777Z,44.50
2022-08-07T09:06:53.443Z,44.50
2022-08-07T09:09:47.522Z,44.50
2022-08-07T09:12:42.530Z,44.40
2022-08-07T09:16:25.606Z,44.60
2022-08-07T09:19:53.376Z,44.70
2022-08-07T09:22:40.002Z,44.70
2022-08-07T09:25:14.767Z,44.70
2022-08-07T09:28:01.051Z,45.30
2022-08-07T09:30:51.632Z,44.60
2022-08-07T09:33:57.603Z,44.60
2022-08-07T09:36:35.844Z,44.70
2022-08-07T09:39:54.304Z,44.70
2022-08-07T09:42:35.606Z,44.70
2022-08-07T09:47:24.103Z,44.80
2022-08-07T09:48:30.067Z,44.80
2022-08-07T09:52:16.673Z,44.90
2022-08-07T09:54:16.418Z,44.90
2022-08-07T09:57:32.830Z,44.90
2022-08-07T10:00:14.413Z,45.00
2022-08-07T10:04:06.800Z,44.90
2022-08-07T10:06:40.405Z,45.20
2022-08-07T10:10:00.607Z,45.50
2022-08-07T10:12:55.448Z,45.50
2022-08-07T10:15:50.795Z,45.40
2022-08-07T10:18:45.980Z,45.40
2022-08-07T10:22:14.942Z,45.40
2022-08-07T10:24:53.466Z,45.30
2022-08-07T10:27:46.632Z,45.70
2022-08-07T10:30:19.758Z,45.90
2022-08-07T10:34:07.027Z,45.90
2022-08-07T10:36:36.302Z,45.90
2022-08-07T10:39:18.067Z,45.90
2022-08-07T10:42:09.090Z,45.70
2022-08-07T10:44:56.342Z,45.80
2022-08-07T10:47:53.157Z,45.70
2022-08-07T10:50:30.652Z,46.50
2022-08-07T10:53:09.075Z,46.20
2022-08-07T10:55:46.364Z,46.30
2022-08-07T10:58:33.265Z,46.30
2022-08-07T11:01:27.652Z,46.20
2022-08-07T11:04:31.367Z,46.30
2022-08-07T11:07:14.736Z,46.30
2022-08-07T11:10:09.859Z,46.40
2022-08-07T11:12:46.089Z,46.30
2022-08-07T11:15:31.957Z,46.40
2022-08-07T11:18:06.957Z,46.30
2022-08-07T11:20:50.573Z,46.40
2022-08-07T11:23:36.570Z,46.30
2022-08-07T11:26:14.967Z,45.90
2022-08-07T11:28:55.200Z,45.70
2022-08-07T11:31:35.743Z,44.80
2022-08-07T11:34:17.504Z,44.20
2022-08-07T11:37:04.756Z,44.20
2022-08-07T11:40:03.467Z,44.30
2022-08-07T11:42:49.929Z,44.20
2022-08-07T11:45:35.870Z,44.30
2022-08-07T11:48:29.353Z,44.50
2022-08-07T11:51:42.010Z,44.50
2022-08-07T11:54:58.632Z,44.60
2022-08-07T11:57:59.506Z,45.30
2022-08-07T12:00:39.600Z,45.40
2022-08-07T12:03:46.715Z,46.70
2022-08-07T12:06:39.836Z,46.30
2022-08-07T12:09:23.248Z,46.20
2022-08-07T12:12:10.267Z,46.20
2022-08-07T12:14:55.500Z,46.20
2022-08-07T12:17:39.952Z,46.30
2022-08-07T12:20:33.971Z,46.40
2022-08-07T12:24:05.120Z,47.20
2022-08-07T12:26:42.012Z,47.10
2022-08-07T12:29:38.961Z,48.10
2022-08-07T12:32:18.492Z,47.40
2022-08-07T12:34:49.388Z,47.70
2022-08-07T12:37:27.807Z,47.20
2022-08-07T12:40:43.859Z,47.70
2022-08-07T12:43:09.750Z,48.50
2022-08-07T12:45:52.734Z,47.90
2022-08-07T12:48:51.942Z,47.60
2022-08-07T12:51:46.430Z,47.50
2022-08-07T12:54:38.097Z,47.20
2022-08-07T12:57:10.040Z,47.10
2022-08-07T12:59:55.182Z,47.00
2022-08-07T13:03:06.933Z,47.20
2022-08-07T13:06:03.376Z,47.40
2022-08-07T13:08:52.291Z,47.30
2022-08-07T13:12:03.566Z,47.10
2022-08-07T13:14:38.760Z,47.20
2022-08-07T13:17:39.799Z,47.00
2022-08-07T13:20:27.724Z,46.90
2022-08-07T13:24:01.536Z,47.00
2022-08-07T13:26:15.751Z,47.00
2022-08-07T13:28:58.377Z,47.00
2022-08-07T13:31:54.956Z,47.00
2022-08-07T13:34:36.928Z,47.00
2022-08-07T13:37:19.892Z,47.00
2022-08-07T13:40:35.388Z,47.00
2022-08-07T13:42:53.767Z,47.10
2022-08-07T13:46:11.226Z,47.20
2022-08-07T13:48:20.824Z,47.20
2022-08-07T13:51:28.133Z,47.20
2022-08-07T13:54:01.678Z,47.20
2022-08-07T13:56:36.256Z,47.20
2022-08-07T13:59:15.694Z,47.20
2022-08-07T14:02:03.635Z,47.20
2022-08-07T14:04:49.464Z,47.30
2022-08-07T14:07:22.889Z,47.30
2022-08-07T14:10:01.458Z,47.40
2022-08-07T14:12:49.231Z,47.30
2022-08-07T14:15:35.151Z,47.30
2022-08-07T14:18:28.057Z,47.40
2022-08-07T14:21:21.149Z,47.30
2022-08-07T14:24:03.662Z,47.40
2022-08-07T14:26:39.040Z,47.30
2022-08-07T14:30:05.195Z,47.30
2022-08-07T14:32:07.998Z,47.20
2022-08-07T14:34:45.681Z,47.30
2022-08-07T14:37:17.940Z,47.10
2022-08-07T14:40:16.564Z,46.30
2022-08-07T14:43:01.483Z,45.30
2022-08-07T14:45:46.704Z,44.40
2022-08-07T14:48:21.871Z,44.50
2022-08-07T14:54:30.610Z,43.50
2022-08-07T14:56:44.452Z,43.00
2022-08-07T15:00:05.000Z,43.20
2022-08-07T15:05:02.159Z,43.30
2022-08-07T15:10:25.986Z,43.20
2022-08-07T15:12:58.972Z,43.50
2022-08-07T15:15:38.949Z,43.30
2022-08-07T15:18:14.389Z,43.30
2022-08-07T15:25:16.168Z,42.80
2022-08-07T15:26:54.901Z,43.10
2022-08-07T15:32:15.513Z,42.60
2022-08-07T15:35:06.574Z,41.50
2022-08-07T15:38:17.261Z,42.10
2022-08-07T15:40:34.891Z,41.80
2022-08-07T15:43:53.572Z,41.60
2022-08-07T15:49:15.439Z,41.90
2022-08-07T15:54:34.260Z,43.80
2022-08-07T15:57:05.431Z,43.00
2022-08-07T15:59:39.568Z,42.30
2022-08-07T16:02:15.540Z,44.50
2022-08-07T16:04:45.560Z,44.60
2022-08-07T16:08:28.425Z,44.80
2022-08-07T16:10:15.176Z,45.10
2022-08-07T16:13:05.576Z,45.30
2022-08-07T16:16:00.368Z,45.50
2022-08-07T16:18:55.786Z,45.60
2022-08-07T16:22:01.733Z,45.70
2022-08-07T16:24:35.436Z,45.80
2022-08-07T16:27:20.930Z,45.80
2022-08-07T16:30:28.976Z,45.90
2022-08-07T16:34:03.451Z,45.90
2022-08-07T16:36:20.590Z,46.00
2022-08-07T16:39:33.804Z,46.10
2022-08-07T16:42:46.293Z,46.10
2022-08-07T16:46:34.710Z,46.20
2022-08-07T16:50:28.789Z,46.20
2022-08-07T16:52:50.343Z,46.20
2022-08-07T16:55:27.667Z,46.30
2022-08-07T16:58:23.835Z,46.40
2022-08-07T17:01:17.351Z,46.20
2022-08-07T17:04:01.305Z,46.30
2022-08-07T17:07:02.794Z,46.30
2022-08-07T17:10:08.249Z,46.30
2022-08-07T17:12:45.403Z,46.40
2022-08-07T17:15:44.210Z,46.30
2022-08-07T17:18:25.932Z,46.40
2022-08-07T17:20:56.360Z,46.40
2022-08-07T17:23:46.139Z,46.50
2022-08-07T17:26:23.347Z,46.50
2022-08-07T17:30:12.706Z,46.50
2022-08-07T17:32:30.883Z,46.40
2022-08-07T17:35:50.945Z,46.50
2022-08-07T17:38:15.024Z,46.50
2022-08-07T17:42:02.740Z,46.60
2022-08-07T17:44:15.575Z,46.50
2022-08-07T17:47:08.272Z,46.60
2022-08-07T17:49:45.995Z,46.60
2022-08-07T17:52:30.805Z,46.60
2022-08-07T17:55:08.483Z,46.70
2022-08-07T17:57:58.865Z,46.70
2022-08-07T18:00:49.081Z,46.70
2022-08-07T18:03:25.517Z,46.70
2022-08-07T18:06:02.981Z,46.70
2022-08-07T18:09:01.321Z,46.80
2022-08-07T18:12:16.110Z,46.60
2022-08-07T18:14:39.792Z,46.70
2022-08-07T18:18:45.836Z,46.70
2022-08-07T18:21:11.605Z,46.80
2022-08-07T18:23:50.875Z,46.80
2022-08-07T18:26:50.318Z,46.80
2022-08-07T18:30:05.887Z,46.80
2022-08-07T18:32:38.128Z,46.80
2022-08-07T18:35:17.662Z,46.90
2022-08-07T18:38:56.079Z,46.90
2022-08-07T18:41:16.558Z,46.90
2022-08-07T18:44:03.946Z,46.90
2022-08-07T18:46:47.648Z,46.90
2022-08-07T18:50:31.093Z,46.90
2022-08-07T18:52:54.215Z,46.90
2022-08-07T18:55:40.923Z,46.90
2022-08-07T18:58:35.723Z,46.90
2022-08-07T19:02:17.452Z,46.90
2022-08-07T19:04:25.053Z,46.90
2022-08-07T19:07:08.391Z,46.90
2022-08-07T19:09:55.513Z,47.00
2022-08-07T19:12:48.698Z,47.00
2022-08-07T19:16:04.411Z,47.00
2022-08-07T19:18:34.227Z,47.00
2022-08-07T19:21:13.038Z,47.00
2022-08-07T19:23:58.874Z,47.00
2022-08-07T19:27:09.342Z,47.00
2022-08-07T19:31:00.136Z,47.60
2022-08-07T19:32:26.595Z,47.10
2022-08-07T19:35:03.802Z,47.10
2022-08-07T19:37:56.929Z,47.10
2022-08-07T19:40:31.075Z,47.10
2022-08-07T19:43:02.726Z,47.10
2022-08-07T19:46:05.909Z,47.10
2022-08-07T19:48:42.334Z,47.10
2022-08-07T19:51:20.280Z,47.20
2022-08-07T19:54:31.421Z,47.20
2022-08-07T19:57:56.736Z,47.20
2022-08-07T19:59:46.857Z,47.20
2022-08-07T20:02:28.547Z,47.20
2022-08-07T20:04:57.990Z,47.20
2022-08-07T20:07:46.340Z,47.20
2022-08-07T20:10:38.444Z,47.30
2022-08-07T20:13:22.878Z,47.30
2022-08-07T20:15:55.256Z,47.30
2022-08-07T20:18:33.040Z,47.30
2022-08-07T20:21:20.900Z,47.40
2022-08-07T20:23:57.919Z,47.30
2022-08-07T20:26:32.418Z,47.30
2022-08-07T20:29:16.950Z,47.30
2022-08-07T20:32:02.311Z,47.30
2022-08-07T20:34:52.249Z,47.40
2022-08-07T20:37:29.475Z,47.40
2022-08-07T20:40:02.323Z,47.40
2022-08-07T20:42:34.401Z,47.40
2022-08-07T20:45:32.651Z,47.40
2022-08-07T20:47:58.572Z,47.40
2022-08-07T20:50:30.548Z,47.40
2022-08-07T20:52:59.623Z,47.40
2022-08-07T20:55:31.934Z,47.40
2022-08-07T20:58:04.096Z,47.40
2022-08-07T21:00:46.173Z,47.40
2022-08-07T21:03:23.205Z,47.40
2022-08-07T21:06:00.806Z,47.40
2022-08-07T21:08:37.929Z,47.40
2022-08-07T21:11:11.894Z,47.40
2022-08-07T21:14:16.821Z,47.40
2022-08-07T21:16:56.387Z,47.40
2022-08-07T21:19:32.015Z,47.50
2022-08-07T21:22:19.767Z,47.50
2022-08-07T21:25:12.387Z,47.50
2022-08-07T21:28:01.899Z,47.50
2022-08-07T21:30:44.941Z,47.60
2022-08-07T21:33:22.231Z,47.50
2022-08-07T21:36:11.935Z,47.50
2022-08-07T21:39:47.202Z,47.50
2022-08-07T21:42:37.443Z,47.50
2022-08-07T21:45:08.341Z,47.50
2022-08-07T21:48:05.072Z,47.50
2022-08-07T21:50:42.095Z,47.60
2022-08-07T21:53:23.000Z,47.60
2022-08-07T21:56:36.342Z,47.60
2022-08-07T21:59:09.286Z,47.60
2022-08-07T22:01:50.275Z,47.60
2022-08-07T22:04:53.661Z,47.60
2022-08-07T22:07:31.524Z,47.60
2022-08-07T22:10:19.932Z,47.50
2022-08-07T22:12:56.069Z,46.90
2022-08-07T22:16:38.624Z,46.80
2022-08-07T22:18:26.507Z,46.30
2022-08-07T22:21:01.418Z,46.00
2022-08-07T22:23:40.524Z,45.80
2022-08-07T22:26:21.514Z,45.70
2022-08-07T22:29:04.827Z,45.80
2022-08-07T22:32:00.338Z,45.90
2022-08-07T22:34:52.959Z,45.80
2022-08-07T22:38:01.614Z,45.80
2022-08-07T22:40:33.452Z,45.80
2022-08-07T22:43:10.943Z,45.90
2022-08-07T22:46:40.812Z,45.70
2022-08-07T22:49:54.046Z,45.70
2022-08-07T22:52:58.328Z,45.60
2022-08-07T22:55:59.254Z,45.70
2022-08-07T22:59:25.075Z,45.70
2022-08-07T23:02:38.373Z,45.70
2022-08-07T23:06:07.514Z,45.70
2022-08-07T23:08:46.773Z,45.70
2022-08-07T23:11:35.289Z,45.70
2022-08-07T23:14:36.594Z,45.80
2022-08-07T23:17:26.721Z,45.90
2022-08-07T23:20:52.296Z,45.90
2022-08-07T23:24:05.608Z,45.90
2022-08-07T23:27:10.812Z,45.90
2022-08-07T23:30:37.308Z,45.90
2022-08-07T23:34:34.864Z,46.00
2022-08-07T23:36:22.886Z,46.00
2022-08-07T23:39:08.542Z,46.10
2022-08-07T23:42:04.527Z,46.00
2022-08-07T23:44:57.058Z,46.20
2022-08-07T23:47:47.846Z,46.20
2022-08-07T23:50:37.907Z,46.20
2022-08-07T23:53:50.035Z,46.20
2022-08-07T23:56:23.022Z,46.10
2022-08-07T23:59:10.842Z,46.10
